Time;durP1;ratioP1;P1;durP2;ratioP2;P2;SDS_P1;SDS_P2;PMS_P1;PMS_P2;Temp;Humidity;BMP_temperature;BMP_pressure;BME280_temperature;BME280_humidity;BME280_pressure;Samples;Min_cycle;Max_cycle;Signal;HPM_P1;HPM_P2
2022/08/19 00:00:08;;;;;;;0.40;0.40;;;20.70;1.00;;;;;;5055788;28;20179;-76
2022/08/19 00:02:35;;;;;;;0.30;0.30;;;20.70;1.00;;;;;;5041472;28;20205;-77
2022/08/19 00:05:01;;;;;;;0.20;0.20;;;20.50;1.00;;;;;;5052417;28;20237;-77
2022/08/19 00:07:26;;;;;;;0.30;0.30;;;20.30;1.00;;;;;;5052397;28;20187;-77
2022/08/19 00:09:52;;;;;;;0.33;0.33;;;20.20;1.00;;;;;;5051274;28;20183;-77
2022/08/19 00:12:17;;;;;;;0.30;0.30;;;20.20;1.00;;;;;;5051733;28;20228;-77
2022/08/19 00:14:43;;;;;;;0.27;0.27;;;20.20;47.40;;;;;;5051921;28;20207;-78
2022/08/19 00:17:09;;;;;;;0.30;0.30;;;20.10;92.30;;;;;;5051708;28;20244;-77
2022/08/19 00:19:35;;;;;;;0.33;0.33;;;20.10;99.90;;;;;;5051586;28;20190;-77
2022/08/19 00:22:02;;;;;;;0.33;0.33;;;20.00;99.90;;;;;;5051781;28;20179;-77
2022/08/19 00:24:28;;;;;;;0.40;0.40;;;19.90;99.90;;;;;;5051887;28;20281;-77
2022/08/19 00:26:56;;;;;;;0.30;0.30;;;19.80;99.90;;;;;;5051333;28;20729;-77
2022/08/19 00:29:23;;;;;;;0.30;0.30;;;19.80;99.90;;;;;;5051439;28;20175;-77
2022/08/19 00:31:52;;;;;;;0.30;0.30;;;19.70;99.90;;;;;;5051579;28;20270;-77
2022/08/19 00:34:18;;;;;;;0.30;0.30;;;19.70;94.60;;;;;;5051857;28;20556;-76
2022/08/19 00:36:44;;;;;;;0.30;0.30;;;19.70;99.90;;;;;;5051647;28;20694;-76
2022/08/19 00:39:10;;;;;;;0.37;0.37;;;19.70;99.90;;;;;;5050833;28;20528;-76
2022/08/19 00:41:36;;;;;;;0.30;0.30;;;19.70;99.90;;;;;;5051242;28;20177;-77
2022/08/19 00:44:10;;;;;;;0.40;0.40;;;19.70;99.90;;;;;;5051045;28;20211;-77
2022/08/19 00:46:39;;;;;;;0.30;0.30;;;19.70;99.90;;;;;;5050482;28;20175;-77
2022/08/19 00:49:29;;;;;;;0.30;0.30;;;19.60;99.90;;;;;;5051069;28;20190;-77
2022/08/19 00:52:24;;;;;;;0.30;0.30;;;19.60;99.90;;;;;;5048164;28;20620;-77
2022/08/19 00:54:52;;;;;;;0.30;0.30;;;19.60;99.90;;;;;;5050487;28;20242;-77
2022/08/19 00:57:23;;;;;;;0.30;0.30;;;19.60;99.90;;;;;;5051187;28;20199;-77
2022/08/19 00:59:54;;;;;;;0.40;0.40;;;19.60;99.90;;;;;;5051004;28;20286;-77
2022/08/19 01:02:19;;;;;;;0.33;0.33;;;19.50;99.90;;;;;;5051128;28;20221;-77
2022/08/19 01:04:45;;;;;;;0.30;0.30;;;19.40;99.90;;;;;;5051321;28;20211;-77
2022/08/19 01:07:12;;;;;;;0.30;0.30;;;19.40;99.90;;;;;;5052457;28;20175;-77
2022/08/19 01:09:37;;;;;;;0.30;0.30;;;19.40;99.90;;;;;;5055086;28;20300;-77
2022/08/19 01:12:04;;;;;;;0.30;0.30;;;19.40;99.90;;;;;;5055531;28;20850;-77
2022/08/19 01:14:30;;;;;;;0.20;0.20;;;19.50;99.90;;;;;;5054951;28;20672;-77
2022/08/19 01:16:56;;;;;;;0.30;0.30;;;19.50;99.90;;;;;;5054896;28;20677;-78
2022/08/19 01:19:31;;;;;;;0.30;0.30;;;19.40;99.90;;;;;;5054339;28;20641;-77
2022/08/19 01:22:22;;;;;;;0.40;0.40;;;19.40;99.90;;;;;;5055365;28;20179;-77
2022/08/19 01:24:49;;;;;;;0.40;0.40;;;19.40;99.90;;;;;;5054903;28;20176;-77
2022/08/19 01:27:14;;;;;;;0.30;0.30;;;19.50;99.90;;;;;;5057388;28;20202;-77
2022/08/19 01:29:41;;;;;;;0.30;0.30;;;19.40;99.90;;;;;;5062833;28;20183;-78
2022/08/19 01:32:10;;;;;;;0.37;0.37;;;19.40;99.90;;;;;;5055268;28;20213;-78
2022/08/19 01:34:36;;;;;;;0.30;0.30;;;19.40;99.90;;;;;;5055161;28;20219;-78
2022/08/19 01:37:08;;;;;;;0.40;0.40;;;19.40;99.90;;;;;;5055458;28;20313;-78
2022/08/19 01:39:33;;;;;;;0.33;0.33;;;19.40;99.90;;;;;;5055040;28;20179;-77
2022/08/19 01:42:02;;;;;;;0.30;0.30;;;19.40;99.90;;;;;;5054593;28;20205;-77
2022/08/19 01:44:28;;;;;;;0.30;0.30;;;19.40;99.90;;;;;;5054739;28;20675;-78
2022/08/19 01:46:54;;;;;;;0.30;0.30;;;19.40;99.90;;;;;;5054385;28;20179;-77
2022/08/19 01:49:24;;;;;;;0.30;0.30;;;19.40;99.90;;;;;;5054261;28;20190;-78
2022/08/19 01:51:50;;;;;;;0.30;0.30;;;19.40;99.90;;;;;;5054976;28;20262;-77
2022/08/19 01:54:17;;;;;;;0.30;0.30;;;19.30;99.90;;;;;;5054616;28;20744;-77
2022/08/19 01:56:42;;;;;;;0.30;0.30;;;19.30;99.90;;;;;;5054196;28;20179;-77
2022/08/19 01:59:12;;;;;;;0.30;0.30;;;19.10;99.90;;;;;;5054040;28;20617;-78
2022/08/19 02:01:38;;;;;;;0.30;0.30;;;18.90;99.90;;;;;;5055017;28;20225;-77
2022/08/19 02:04:05;;;;;;;0.30;0.30;;;19.00;99.90;;;;;;5054282;28;20199;-77
2022/08/19 02:06:31;;;;;;;0.30;0.30;;;18.90;99.90;;;;;;5054564;28;20175;-77
2022/08/19 02:08:57;;;;;;;0.30;0.30;;;18.80;99.90;;;;;;5053923;28;20190;-78
2022/08/19 02:11:26;;;;;;;0.30;0.30;;;18.90;99.90;;;;;;5054250;28;20184;-77
2022/08/19 02:13:53;;;;;;;0.30;0.30;;;19.00;99.90;;;;;;5054089;28;20202;-77
2022/08/19 02:16:19;;;;;;;0.30;0.30;;;19.10;99.90;;;;;;5054128;28;20176;-77
2022/08/19 02:18:48;;;;;;;0.30;0.30;;;19.10;99.90;;;;;;5053410;28;20198;-77
2022/08/19 02:21:15;;;;;;;0.30;0.30;;;19.10;99.90;;;;;;5053882;28;20194;-77
2022/08/19 02:23:42;;;;;;;0.30;0.30;;;19.10;99.90;;;;;;5053966;28;20218;-77
2022/08/19 02:26:07;;;;;;;0.37;0.37;;;19.10;99.90;;;;;;5053960;28;20179;-77
2022/08/19 02:28:33;;;;;;;0.40;0.40;;;19.10;99.90;;;;;;5053881;28;20179;-77
2022/08/19 02:31:00;;;;;;;0.30;0.30;;;19.10;99.90;;;;;;5053860;28;20182;-77
2022/08/19 02:33:26;;;;;;;0.30;0.30;;;19.10;99.90;;;;;;5057909;28;20203;-76
2022/08/19 02:35:52;;;;;;;0.30;0.30;;;19.10;99.90;;;;;;5063564;28;20210;-77
2022/08/19 02:38:26;;;;;;;0.30;0.30;;;19.10;99.90;;;;;;5063832;28;20201;-77
2022/08/19 02:40:58;;;;;;;0.30;0.30;;;19.10;99.90;;;;;;5063779;28;20240;-76
2022/08/19 02:43:25;;;;;;;0.40;0.40;;;19.00;99.90;;;;;;5064246;28;20240;-77
2022/08/19 02:45:51;;;;;;;0.30;0.30;;;19.00;99.90;;;;;;5072074;23;20315;-78
2022/08/19 02:48:22;;;;;;;0.40;0.40;;;19.10;99.90;;;;;;5014480;28;20184;-80
2022/08/19 02:50:54;;;;;;;0.37;0.37;;;19.00;99.90;;;;;;5014502;28;20184;-77
2022/08/19 02:53:22;;;;;;;0.30;0.30;;;19.00;99.90;;;;;;5019123;28;20216;-78
2022/08/19 02:55:48;;;;;;;0.30;0.30;;;19.00;99.90;;;;;;5023180;28;20279;-79
2022/08/19 02:58:15;;;;;;;0.40;0.40;;;18.90;99.90;;;;;;5021760;28;20185;-79
2022/08/19 03:00:43;;;;;;;0.40;0.40;;;18.90;99.90;;;;;;5019201;28;20192;-77
2022/08/19 03:03:09;;;;;;;0.30;0.30;;;18.80;99.90;;;;;;5014016;28;20203;-77
2022/08/19 03:05:34;;;;;;;0.30;0.30;;;18.80;99.90;;;;;;5013266;28;20275;-77
2022/08/19 03:08:00;;;;;;;0.40;0.40;;;18.80;99.90;;;;;;5013101;28;20181;-77
2022/08/19 03:10:25;;;;;;;0.40;0.40;;;18.80;99.90;;;;;;5012650;28;20181;-77
2022/08/19 03:12:51;;;;;;;0.30;0.30;;;18.80;99.90;;;;;;5012768;28;20223;-77
2022/08/19 03:15:16;;;;;;;0.40;0.40;;;18.90;99.90;;;;;;5013002;28;20250;-78
2022/08/19 03:17:42;;;;;;;0.40;0.40;;;18.90;99.90;;;;;;5013079;28;20230;-78
2022/08/19 03:20:08;;;;;;;0.30;0.30;;;18.80;99.90;;;;;;5012455;28;20239;-78
2022/08/19 03:22:33;;;;;;;0.30;0.30;;;18.80;99.90;;;;;;5012663;28;20231;-78
2022/08/19 03:24:59;;;;;;;0.33;0.33;;;18.80;99.90;;;;;;5012852;28;20642;-79
2022/08/19 03:27:24;;;;;;;0.43;0.43;;;18.80;99.90;;;;;;5013015;28;20177;-78
2022/08/19 03:29:51;;;;;;;0.40;0.40;;;18.80;99.90;;;;;;5012548;28;20604;-78
2022/08/19 03:32:16;;;;;;;0.30;0.30;;;18.80;99.90;;;;;;5013102;28;20192;-78
2022/08/19 03:34:42;;;;;;;0.40;0.40;;;18.70;99.90;;;;;;5012789;28;20212;-79
2022/08/19 03:37:12;;;;;;;0.30;0.30;;;18.70;99.90;;;;;;5022765;28;20188;-78
2022/08/19 03:39:39;;;;;;;0.33;0.33;;;18.70;99.90;;;;;;5034712;28;20181;-77
2022/08/19 03:42:05;;;;;;;0.40;0.40;;;18.70;99.90;;;;;;5035288;28;20177;-78
2022/08/19 03:44:32;;;;;;;0.40;0.40;;;18.80;99.90;;;;;;5020085;28;20203;-77
2022/08/19 03:46:59;;;;;;;0.40;0.40;;;18.70;99.90;;;;;;5012450;28;20197;-77
2022/08/19 03:49:27;;;;;;;0.40;0.40;;;18.70;99.90;;;;;;5012030;28;20184;-76
2022/08/19 03:51:54;;;;;;;0.40;0.40;;;18.70;99.90;;;;;;5011645;28;20264;-76
2022/08/19 03:54:25;;;;;;;0.30;0.30;;;18.70;99.90;;;;;;5012079;28;20258;-76
2022/08/19 03:56:53;;;;;;;0.33;0.33;;;18.80;99.90;;;;;;5012435;28;20180;-77
2022/08/19 03:59:30;;;;;;;0.30;0.30;;;18.80;96.40;;;;;;5011817;28;20223;-77
2022/08/19 04:01:58;;;;;;;0.37;0.37;;;18.80;99.90;;;;;;5012136;28;20180;-77
2022/08/19 04:04:24;;;;;;;0.30;0.30;;;18.80;99.90;;;;;;5011768;28;20212;-77
2022/08/19 04:06:50;;;;;;;0.40;0.40;;;18.80;99.90;;;;;;5012072;28;20187;-77
2022/08/19 04:09:16;;;;;;;0.40;0.40;;;18.80;99.90;;;;;;5011698;28;20188;-77
2022/08/19 04:11:46;;;;;;;0.40;0.40;;;18.80;99.90;;;;;;5011966;28;20176;-78
2022/08/19 04:14:14;;;;;;;0.40;0.40;;;18.80;99.90;;;;;;5011910;28;20204;-78
2022/08/19 04:16:40;;;;;;;0.30;0.30;;;18.80;99.90;;;;;;5011696;28;20188;-77
2022/08/19 04:19:06;;;;;;;0.40;0.40;;;18.70;99.90;;;;;;5011149;28;20172;-78
2022/08/19 04:21:32;;;;;;;0.40;0.40;;;18.70;99.90;;;;;;5011717;28;20251;-78
2022/08/19 04:23:58;;;;;;;0.30;0.30;;;18.70;99.90;;;;;;5011734;28;20204;-77
2022/08/19 04:26:27;;;;;;;0.40;0.40;;;18.70;99.90;;;;;;5011695;28;20177;-77
2022/08/19 04:28:54;;;;;;;0.40;0.40;;;18.70;99.90;;;;;;5011386;28;20204;-77
2022/08/19 04:31:25;;;;;;;0.30;0.30;;;18.70;99.90;;;;;;5011455;28;20208;-77
2022/08/19 04:33:53;;;;;;;0.40;0.40;;;18.60;99.90;;;;;;5011498;28;20196;-78
2022/08/19 04:36:23;;;;;;;0.43;0.43;;;18.60;99.90;;;;;;5011542;28;20204;-77
2022/08/19 04:38:53;;;;;;;0.50;0.50;;;18.60;99.90;;;;;;5011421;28;20177;-79
2022/08/19 04:44:03;;;;;;;0.40;0.40;;;18.70;95.80;;;;;;5009295;28;20214;-76
2022/08/19 04:46:31;;;;;;;0.40;0.40;;;18.70;95.40;;;;;;5011098;28;20184;-76
2022/08/19 04:48:58;;;;;;;0.60;0.60;;;18.70;93.40;;;;;;5010774;28;20259;-76
2022/08/19 04:51:24;;;;;;;0.43;0.43;;;18.60;94.40;;;;;;5011435;28;20282;-78
2022/08/19 04:53:52;;;;;;;0.40;0.40;;;18.70;79.90;;;;;;5010829;28;20279;-76
2022/08/19 04:56:22;;;;;;;0.40;0.40;;;18.70;58.30;;;;;;5005469;28;20228;-79
2022/08/19 04:58:51;;;;;;;0.40;0.40;;;18.80;50.70;;;;;;5012197;28;20196;-78
2022/08/19 05:01:32;;;;;;;0.50;0.50;;;18.70;48.80;;;;;;5008092;28;20781;-77
2022/08/19 05:03:58;;;;;;;0.30;0.30;;;18.80;38.30;;;;;;5007376;28;20192;-77
2022/08/19 05:06:25;;;;;;;0.40;0.40;;;18.80;20.20;;;;;;5010414;28;20177;-78
2022/08/19 05:08:51;;;;;;;0.47;0.47;;;18.90;34.00;;;;;;5010860;28;20184;-79
2022/08/19 05:11:23;;;;;;;0.40;0.40;;;18.90;21.20;;;;;;5011843;28;20184;-78
2022/08/19 05:13:49;;;;;;;0.40;0.40;;;18.90;25.30;;;;;;5011055;28;20217;-77
2022/08/19 05:16:17;;;;;;;0.40;0.40;;;18.90;23.50;;;;;;5011225;28;20228;-77
2022/08/19 05:24:13;;;;;;;0.40;0.40;;;19.00;10.20;;;;;;5010799;28;20203;-75
2022/08/19 05:26:41;;;;;;;0.40;0.40;;;19.00;17.00;;;;;;5010490;28;20169;-76
2022/08/19 05:29:08;;;;;;;0.40;0.40;;;19.00;2.40;;;;;;5011606;28;20634;-76
2022/08/19 05:31:35;;;;;;;0.30;0.30;;;19.00;1.00;;;;;;5008682;28;20193;-75
2022/08/19 05:34:01;;;;;;;0.40;0.40;;;19.10;20.20;;;;;;5011015;28;20204;-76
2022/08/19 05:36:28;;;;;;;0.40;0.40;;;19.10;1.00;;;;;;5013553;28;20188;-75
2022/08/19 05:38:55;;;;;;;0.40;0.40;;;18.90;1.00;;;;;;5009299;28;20270;-75
2022/08/19 05:41:29;;;;;;;0.40;0.40;;;19.10;1.00;;;;;;5009244;28;20181;-74
2022/08/19 05:43:56;;;;;;;0.30;0.30;;;19.10;1.00;;;;;;5012738;28;20193;-73
2022/08/19 05:46:22;;;;;;;0.40;0.40;;;19.10;13.20;;;;;;5010222;28;20193;-73
2022/08/19 05:48:48;;;;;;;0.40;0.40;;;19.10;11.80;;;;;;5010593;28;20542;-73
2022/08/19 05:51:14;;;;;;;0.40;0.40;;;19.00;26.10;;;;;;5009788;28;20177;-73
2022/08/19 05:53:40;;;;;;;0.43;0.43;;;19.00;19.70;;;;;;5010008;28;21766;-73
2022/08/19 05:56:11;;;;;;;0.40;0.40;;;19.00;12.60;;;;;;5012351;28;20274;-72
2022/08/19 05:58:37;;;;;;;0.40;0.40;;;19.10;21.60;;;;;;5010700;28;20199;-73
2022/08/19 06:01:09;;;;;;;0.40;0.40;;;19.10;1.10;;;;;;5010814;28;20649;-74
2022/08/19 06:03:37;;;;;;;0.30;0.30;;;19.00;17.00;;;;;;5012686;28;20211;-74
2022/08/19 06:06:03;;;;;;;0.40;0.40;;;19.10;12.20;;;;;;5013742;28;20181;-74
2022/08/19 06:08:30;;;;;;;0.40;0.40;;;19.10;17.00;;;;;;5013478;28;20172;-74
2022/08/19 06:10:55;;;;;;;0.30;0.30;;;19.10;48.60;;;;;;5012861;28;20177;-74
2022/08/19 06:13:22;;;;;;;0.40;0.40;;;19.00;99.90;;;;;;5013495;28;20197;-74
2022/08/19 06:15:48;;;;;;;0.50;0.50;;;19.00;99.90;;;;;;5011872;28;20215;-74
2022/08/19 06:18:14;;;;;;;0.40;0.40;;;19.00;99.90;;;;;;5013691;28;20235;-74
2022/08/19 06:20:40;;;;;;;0.30;0.30;;;19.00;99.90;;;;;;5015563;28;20179;-72
2022/08/19 06:23:06;;;;;;;0.50;0.50;;;19.00;99.90;;;;;;5016946;28;20189;-73
2022/08/19 06:25:32;;;;;;;0.40;0.40;;;19.00;99.90;;;;;;5010588;28;20181;-73
2022/08/19 06:27:58;;;;;;;0.40;0.40;;;19.00;99.90;;;;;;5012422;28;20187;-73
2022/08/19 06:30:23;;;;;;;0.40;0.40;;;19.10;99.90;;;;;;5012689;28;20187;-73
2022/08/19 06:32:49;;;;;;;0.40;0.40;;;19.10;99.90;;;;;;5014227;28;20196;-73
2022/08/19 06:35:15;;;;;;;0.40;0.40;;;19.10;99.90;;;;;;5013836;28;20212;-74
2022/08/19 06:37:42;;;;;;;0.30;0.30;;;19.10;99.90;;;;;;5013410;28;20649;-73
2022/08/19 06:40:10;;;;;;;0.40;0.40;;;19.20;97.40;;;;;;4994893;28;20188;-73
2022/08/19 06:42:38;;;;;;;0.37;0.37;;;19.20;89.80;;;;;;5012107;28;20492;-73
2022/08/19 06:45:05;;;;;;;0.30;0.30;;;19.20;78.30;;;;;;5012817;28;20177;-73
2022/08/19 06:47:32;;;;;;;0.40;0.40;;;19.20;85.30;;;;;;5012461;28;20196;-76
2022/08/19 06:50:01;;;;;;;0.40;0.40;;;19.30;99.90;;;;;;5012486;28;20317;-75
2022/08/19 06:52:27;;;;;;;0.40;0.40;;;19.30;99.90;;;;;;5013150;28;20185;-75
2022/08/19 06:54:55;;;;;;;0.30;0.30;;;19.30;99.90;;;;;;5013288;28;20298;-75
2022/08/19 06:57:21;;;;;;;0.30;0.30;;;19.30;99.90;;;;;;5013275;28;20212;-74
2022/08/19 06:59:47;;;;;;;0.33;0.33;;;19.40;99.90;;;;;;5012289;28;20270;-76
2022/08/19 07:02:12;;;;;;;0.40;0.40;;;19.40;99.90;;;;;;5013035;28;20179;-75
2022/08/19 07:04:38;;;;;;;0.40;0.40;;;19.40;99.90;;;;;;5012715;28;20212;-75
2022/08/19 07:07:12;;;;;;;0.40;0.40;;;19.40;99.90;;;;;;5011483;28;20172;-75
2022/08/19 07:09:41;;;;;;;0.30;0.30;;;19.30;99.90;;;;;;5011817;28;20247;-75
2022/08/19 07:12:09;;;;;;;0.30;0.30;;;19.30;99.90;;;;;;5011785;28;20180;-75
2022/08/19 07:14:37;;;;;;;0.40;0.40;;;19.20;99.90;;;;;;5011847;28;20324;-75
2022/08/19 07:17:04;;;;;;;0.50;0.50;;;19.20;99.90;;;;;;5012723;28;20187;-75
2022/08/19 07:19:31;;;;;;;0.40;0.40;;;19.10;99.90;;;;;;5011077;28;20180;-75
2022/08/19 07:21:59;;;;;;;0.40;0.40;;;19.00;99.90;;;;;;5009366;28;20181;-76
2022/08/19 07:24:26;;;;;;;0.37;0.37;;;18.90;99.90;;;;;;5011886;28;20692;-74
2022/08/19 07:26:54;;;;;;;0.40;0.40;;;18.90;99.90;;;;;;5012092;28;20541;-74
2022/08/19 07:29:22;;;;;;;0.40;0.40;;;18.90;99.90;;;;;;5009151;28;20713;-74
2022/08/19 07:31:50;;;;;;;0.40;0.40;;;18.90;99.90;;;;;;5011368;28;20649;-75
2022/08/19 07:34:16;;;;;;;0.30;0.30;;;18.90;99.90;;;;;;5010786;28;20681;-76
2022/08/19 07:36:43;;;;;;;0.40;0.40;;;19.00;99.90;;;;;;5011243;28;20188;-76
2022/08/19 07:39:18;;;;;;;0.40;0.40;;;19.10;99.90;;;;;;5011257;28;20185;-76
2022/08/19 07:41:44;;;;;;;0.30;0.30;;;19.00;99.90;;;;;;5010045;28;20246;-74
2022/08/19 07:44:11;;;;;;;0.30;0.30;;;19.00;99.90;;;;;;5011503;28;20203;-76
2022/08/19 07:46:40;;;;;;;0.40;0.40;;;19.10;99.90;;;;;;5010215;28;20200;-77
2022/08/19 07:49:07;;;;;;;0.40;0.40;;;18.90;99.90;;;;;;5010694;28;20180;-76
2022/08/19 07:51:33;;;;;;;0.40;0.40;;;18.90;99.90;;;;;;5011672;28;20554;-77
2022/08/19 07:53:59;;;;;;;0.40;0.40;;;18.90;99.90;;;;;;5012106;28;20192;-77
2022/08/19 07:56:26;;;;;;;0.33;0.33;;;19.00;99.90;;;;;;5011508;28;20219;-75
2022/08/19 07:58:52;;;;;;;0.40;0.40;;;18.90;99.90;;;;;;5010847;28;20238;-78
2022/08/19 08:01:24;;;;;;;0.40;0.40;;;18.90;99.90;;;;;;5009994;28;20704;-76
2022/08/19 08:09:25;;;;;;;0.30;0.30;;;18.80;99.90;;;;;;4995481;28;20536;-76
2022/08/19 08:11:56;;;;;;;0.40;0.40;;;18.80;99.90;;;;;;5010817;28;20688;-76
2022/08/19 08:14:35;;;;;;;0.40;0.40;;;18.80;99.90;;;;;;5010884;28;20197;-77
2022/08/19 08:17:03;;;;;;;0.40;0.40;;;18.70;99.90;;;;;;5011249;28;20235;-76
2022/08/19 08:19:28;;;;;;;0.30;0.30;;;18.80;99.90;;;;;;5011438;28;20184;-76
2022/08/19 08:21:56;;;;;;;0.40;0.40;;;18.70;99.90;;;;;;5011357;28;20177;-76
2022/08/19 08:24:22;;;;;;;0.40;0.40;;;18.60;99.90;;;;;;5010237;28;20259;-75
2022/08/19 08:26:47;;;;;;;0.40;0.40;;;18.60;99.90;;;;;;5009853;28;20189;-77
2022/08/19 08:29:15;;;;;;;0.40;0.40;;;18.80;99.90;;;;;;5028279;28;20160;-75
2022/08/19 08:31:43;;;;;;;0.30;0.30;;;18.90;99.90;;;;;;5030872;28;20256;-76
2022/08/19 08:34:09;;;;;;;0.40;0.40;;;18.90;99.90;;;;;;5027681;28;20207;-74
2022/08/19 08:36:44;;;;;;;0.30;0.30;;;18.70;99.90;;;;;;5010998;28;20180;-73
2022/08/19 08:39:21;;;;;;;0.40;0.40;;;18.70;99.90;;;;;;5008513;28;20603;-73
2022/08/19 08:42:23;;;;;;;0.40;0.40;;;18.70;99.90;;;;;;5010805;28;20184;-73
2022/08/19 08:45:01;;;;;;;0.30;0.30;;;18.60;99.90;;;;;;5010913;28;20649;-75
2022/08/19 08:47:32;;;;;;;0.40;0.40;;;18.70;99.90;;;;;;5007972;28;20196;-74
2022/08/19 08:50:11;;;;;;;0.40;0.40;;;18.80;99.90;;;;;;5009807;28;20176;-75
2022/08/19 08:52:42;;;;;;;0.30;0.30;;;18.90;99.90;;;;;;5008072;28;20204;-75
2022/08/19 08:55:13;;;;;;;0.30;0.30;;;19.00;99.90;;;;;;5008791;28;20220;-75
2022/08/19 08:58:01;;;;;;;0.30;0.30;;;19.00;99.90;;;;;;5008680;28;20192;-74
2022/08/19 09:00:31;;;;;;;0.40;0.40;;;19.10;99.90;;;;;;5003977;28;20318;-75
2022/08/19 09:02:59;;;;;;;0.40;0.40;;;19.10;99.90;;;;;;5010800;28;20228;-78
2022/08/19 09:05:40;;;;;;;0.30;0.30;;;19.10;99.90;;;;;;5008299;28;20843;-77
2022/08/19 09:08:13;;;;;;;0.30;0.30;;;19.10;99.90;;;;;;5010670;28;20649;-76
2022/08/19 09:10:43;;;;;;;0.40;0.40;;;19.00;99.90;;;;;;5010382;28;20522;-76
2022/08/19 09:13:32;;;;;;;0.40;0.40;;;18.80;99.90;;;;;;5010482;28;20193;-76
2022/08/19 09:16:06;;;;;;;0.40;0.40;;;19.00;99.90;;;;;;4979742;28;20921;-76
2022/08/19 09:18:48;;;;;;;0.40;0.40;;;19.10;99.90;;;;;;5009100;28;20180;-76
2022/08/19 09:21:15;;;;;;;0.40;0.40;;;19.10;99.90;;;;;;5008113;28;20268;-76
2022/08/19 09:23:41;;;;;;;0.40;0.40;;;19.10;99.90;;;;;;5009914;28;20327;-77
2022/08/19 09:26:13;;;;;;;0.50;0.50;;;19.10;99.90;;;;;;5009740;28;20767;-76
2022/08/19 09:28:43;;;;;;;0.40;0.40;;;19.20;99.90;;;;;;5011367;28;20254;-76
2022/08/19 09:31:10;;;;;;;0.40;0.40;;;19.10;99.90;;;;;;5013780;28;20191;-76
2022/08/19 09:33:37;;;;;;;0.40;0.40;;;19.20;99.90;;;;;;5014274;28;20216;-75
2022/08/19 09:36:07;;;;;;;0.40;0.40;;;19.30;99.90;;;;;;5014116;28;20235;-75
2022/08/19 09:38:34;;;;;;;0.40;0.40;;;19.30;99.90;;;;;;5014411;28;20230;-79
2022/08/19 09:41:08;;;;;;;0.40;0.40;;;19.40;99.90;;;;;;5013346;28;20336;-75
2022/08/19 09:43:36;;;;;;;0.40;0.40;;;19.50;99.90;;;;;;5013271;28;20197;-77
2022/08/19 09:46:04;;;;;;;0.40;0.40;;;19.50;99.90;;;;;;5001963;28;20534;-76
2022/08/19 09:48:30;;;;;;;0.40;0.40;;;19.40;99.90;;;;;;5012058;28;20650;-80
2022/08/19 09:51:02;;;;;;;0.40;0.40;;;19.40;99.90;;;;;;5013615;28;20204;-76
2022/08/19 09:53:28;;;;;;;0.40;0.40;;;19.50;99.90;;;;;;5013670;28;20276;-75
2022/08/19 09:55:55;;;;;;;0.30;0.30;;;19.50;99.90;;;;;;5010173;28;20669;-77
2022/08/19 09:58:20;;;;;;;0.30;0.30;;;19.50;99.90;;;;;;5012371;28;20180;-76
2022/08/19 10:00:46;;;;;;;0.30;0.30;;;19.60;99.90;;;;;;5011883;28;20168;-78
2022/08/19 10:03:11;;;;;;;0.33;0.33;;;19.50;99.90;;;;;;5013469;28;20284;-80
2022/08/19 10:05:49;;;;;;;0.40;0.40;;;19.60;99.90;;;;;;5013405;28;20176;-76
2022/08/19 10:08:27;;;;;;;0.40;0.40;;;19.70;99.90;;;;;;5012385;28;20665;-78
2022/08/19 10:10:54;;;;;;;0.40;0.40;;;19.60;99.90;;;;;;5012877;28;20311;-77
2022/08/19 10:13:25;;;;;;;0.40;0.40;;;19.60;99.90;;;;;;5013916;28;20192;-76
2022/08/19 10:15:53;;;;;;;0.40;0.40;;;19.60;99.90;;;;;;5013254;28;20216;-76
2022/08/19 10:18:20;;;;;;;0.40;0.40;;;19.60;99.90;;;;;;5013315;28;20266;-76
2022/08/19 10:20:47;;;;;;;0.30;0.30;;;19.70;99.90;;;;;;5012732;28;20183;-76
2022/08/19 10:23:13;;;;;;;0.40;0.40;;;19.70;99.90;;;;;;5012956;28;20197;-76
2022/08/19 10:25:39;;;;;;;0.40;0.40;;;19.60;99.90;;;;;;5012892;28;20239;-76
2022/08/19 10:28:05;;;;;;;0.40;0.40;;;19.70;99.90;;;;;;5013426;28;20176;-77
2022/08/19 10:30:32;;;;;;;0.37;0.37;;;19.50;99.90;;;;;;5013022;28;20168;-76
2022/08/19 10:32:57;;;;;;;0.50;0.50;;;19.50;99.90;;;;;;5013540;28;20204;-76
2022/08/19 10:35:24;;;;;;;0.40;0.40;;;19.50;99.90;;;;;;5013559;28;20685;-76
2022/08/19 10:37:50;;;;;;;0.40;0.40;;;19.60;99.90;;;;;;5010134;28;20184;-76
2022/08/19 10:40:15;;;;;;;0.30;0.30;;;19.70;99.90;;;;;;5012098;28;20188;-78
2022/08/19 10:42:41;;;;;;;0.30;0.30;;;19.60;99.90;;;;;;5012860;28;20670;-79
2022/08/19 10:45:07;;;;;;;0.30;0.30;;;19.60;99.90;;;;;;5012838;28;20268;-77
2022/08/19 10:47:33;;;;;;;0.30;0.30;;;19.50;99.90;;;;;;5012577;28;20262;-78
2022/08/19 10:53:04;;;;;;;0.30;0.30;;;19.50;99.90;;;;;;4934136;29;20232;-78
2022/08/19 10:58:22;;;;;;;0.40;0.40;;;19.50;99.90;;;;;;5012195;28;20223;-80
2022/08/19 11:00:58;;;;;;;0.30;0.30;;;19.40;99.90;;;;;;5012981;28;20204;-77
2022/08/19 11:03:25;;;;;;;0.30;0.30;;;19.30;99.90;;;;;;5012591;28;20200;-76
2022/08/19 11:06:01;;;;;;;0.30;0.30;;;19.30;99.90;;;;;;5010731;28;20219;-76
2022/08/19 11:08:27;;;;;;;0.40;0.40;;;19.30;99.90;;;;;;5011483;28;20819;-76
2022/08/19 11:11:00;;;;;;;0.37;0.37;;;19.20;99.90;;;;;;5011967;28;20272;-77
2022/08/19 11:13:28;;;;;;;0.40;0.40;;;19.20;99.90;;;;;;5010664;28;20201;-77
2022/08/19 11:16:04;;;;;;;0.40;0.40;;;19.20;99.90;;;;;;5012249;28;20208;-76
2022/08/19 11:18:30;;;;;;;0.40;0.40;;;19.20;99.90;;;;;;5012528;28;20184;-79
2022/08/19 11:21:06;;;;;;;0.50;0.50;;;19.20;99.90;;;;;;5011893;28;20664;-76
2022/08/19 11:23:31;;;;;;;0.40;0.40;;;19.10;99.90;;;;;;5011638;28;20197;-78
2022/08/19 11:25:59;;;;;;;0.40;0.40;;;19.00;99.90;;;;;;5010808;28;20185;-76
2022/08/19 11:28:24;;;;;;;0.50;0.50;;;19.00;99.90;;;;;;5011131;28;20255;-78
2022/08/19 11:30:50;;;;;;;0.30;0.30;;;18.90;99.90;;;;;;5012073;28;20402;-76
2022/08/19 11:33:15;;;;;;;0.40;0.40;;;18.80;99.90;;;;;;5011905;28;20219;-76
2022/08/19 11:35:41;;;;;;;0.40;0.40;;;18.80;99.90;;;;;;5011831;28;20223;-78
2022/08/19 11:38:06;;;;;;;0.40;0.40;;;18.80;99.90;;;;;;5012065;28;20817;-76
2022/08/19 11:40:33;;;;;;;0.40;0.40;;;18.70;99.90;;;;;;5011774;28;20264;-77
2022/08/19 11:42:58;;;;;;;0.30;0.30;;;18.70;99.90;;;;;;5011630;28;20224;-78
2022/08/19 11:45:26;;;;;;;0.40;0.40;;;18.80;99.90;;;;;;5009919;28;20279;-78
2022/08/19 11:47:52;;;;;;;0.40;0.40;;;18.80;99.90;;;;;;5011817;28;20546;-79
2022/08/19 11:50:17;;;;;;;0.40;0.40;;;18.70;99.90;;;;;;5010858;28;20638;-77
2022/08/19 11:52:44;;;;;;;0.40;0.40;;;18.80;99.90;;;;;;5007068;28;20692;-79
2022/08/19 11:55:11;;;;;;;0.40;0.40;;;18.80;99.90;;;;;;5010945;28;20224;-76
2022/08/19 11:57:36;;;;;;;0.40;0.40;;;18.80;99.90;;;;;;5012416;28;20180;-77
2022/08/19 12:00:04;;;;;;;0.40;0.40;;;18.90;99.90;;;;;;5010993;28;20216;-78
2022/08/19 12:02:29;;;;;;;0.30;0.30;;;18.90;99.90;;;;;;5011283;28;20205;-79
2022/08/19 12:04:55;;;;;;;0.40;0.40;;;18.90;99.90;;;;;;5010836;28;20178;-77
2022/08/19 12:07:21;;;;;;;0.40;0.40;;;18.90;99.90;;;;;;5011166;28;20661;-77
2022/08/19 12:09:47;;;;;;;0.40;0.40;;;18.80;99.90;;;;;;5010721;28;20208;-79
2022/08/19 12:12:13;;;;;;;0.40;0.40;;;18.90;99.90;;;;;;5011249;28;20188;-78
2022/08/19 12:14:38;;;;;;;0.40;0.40;;;18.90;99.90;;;;;;5011355;28;20207;-78
2022/08/19 12:17:07;;;;;;;0.37;0.37;;;18.90;99.90;;;;;;5008903;28;20653;-77
2022/08/19 12:19:33;;;;;;;0.40;0.40;;;18.90;99.90;;;;;;5008666;28;20181;-78
2022/08/19 12:22:01;;;;;;;0.40;0.40;;;18.90;99.90;;;;;;5008710;28;20204;-78
2022/08/19 12:24:27;;;;;;;0.40;0.40;;;19.00;99.90;;;;;;5009590;28;20279;-78
2022/08/19 12:26:55;;;;;;;0.30;0.30;;;19.10;99.90;;;;;;5010844;28;20271;-78
2022/08/19 12:29:21;;;;;;;0.43;0.43;;;19.00;99.90;;;;;;5010553;28;20587;-77
2022/08/19 12:31:47;;;;;;;0.40;0.40;;;19.10;99.90;;;;;;5011076;28;20653;-78
2022/08/19 12:34:12;;;;;;;0.40;0.40;;;19.10;99.90;;;;;;5010974;28;20204;-79
2022/08/19 12:36:38;;;;;;;0.40;0.40;;;19.10;99.90;;;;;;5011028;28;20251;-77
2022/08/19 12:39:04;;;;;;;0.40;0.40;;;19.00;99.90;;;;;;5010135;28;20204;-79
2022/08/19 12:41:29;;;;;;;0.40;0.40;;;19.00;99.90;;;;;;5010786;28;20194;-78
2022/08/19 12:43:55;;;;;;;0.50;0.50;;;18.90;99.90;;;;;;5009292;28;20291;-76
2022/08/19 12:46:20;;;;;;;0.30;0.30;;;18.90;99.90;;;;;;5010664;28;20202;-77
2022/08/19 12:48:46;;;;;;;0.30;0.30;;;18.90;99.90;;;;;;5011373;28;20176;-78
2022/08/19 12:51:15;;;;;;;0.40;0.40;;;18.90;99.90;;;;;;5010343;28;20184;-78
2022/08/19 12:53:42;;;;;;;0.50;0.50;;;18.90;99.90;;;;;;5007132;28;20204;-77
2022/08/19 12:56:09;;;;;;;0.30;0.30;;;18.90;99.90;;;;;;5010865;28;20212;-76
2022/08/19 12:58:35;;;;;;;0.40;0.40;;;18.80;99.90;;;;;;5010449;28;20571;-77
2022/08/19 13:01:12;;;;;;;0.40;0.40;;;18.90;99.90;;;;;;5009780;28;20238;-79
2022/08/19 13:03:38;;;;;;;0.40;0.40;;;19.00;99.90;;;;;;5012260;28;20234;-77
2022/08/19 13:06:04;;;;;;;0.30;0.30;;;19.00;99.90;;;;;;5014434;28;20615;-77
2022/08/19 13:08:29;;;;;;;0.30;0.30;;;19.00;99.90;;;;;;5014967;28;20180;-78
2022/08/19 13:10:55;;;;;;;0.40;0.40;;;19.00;99.90;;;;;;5014383;28;20319;-80